createdAt,value
2018-05-18T00:01:05.427Z,5.87
2018-05-18T00:03:34.574Z,5.77
2018-05-18T00:06:03.623Z,7.07
2018-05-18T00:08:33.310Z,6.43
2018-05-18T00:11:02.358Z,7.77
2018-05-18T00:13:30.513Z,7.67
2018-05-18T00:15:59.463Z,8.37
2018-05-18T00:18:27.899Z,6.43
2018-05-18T00:20:56.079Z,9.17
2018-05-18T00:23:24.299Z,7.90
2018-05-18T00:25:52.884Z,6.70
2018-05-18T00:28:21.166Z,5.90
2018-05-18T00:30:50.271Z,6.33
2018-05-18T00:33:19.402Z,6.53
2018-05-18T00:35:47.995Z,7.07
2018-05-18T00:38:17.865Z,6.53
2018-05-18T00:40:46.054Z,8.40
2018-05-18T00:43:15.283Z,7.70
2018-05-18T00:45:43.455Z,7.53
2018-05-18T00:48:12.086Z,6.87
2018-05-18T00:50:41.055Z,9.37
2018-05-18T00:53:10.224Z,10.37
2018-05-18T00:55:42.679Z,7.17
2018-05-18T00:58:11.345Z,8.93
2018-05-18T01:00:39.505Z,7.70
2018-05-18T01:03:08.051Z,7.13
2018-05-18T01:05:36.502Z,7.30
2018-05-18T01:08:05.237Z,6.13
2018-05-18T01:10:33.650Z,7.43
2018-05-18T01:13:02.254Z,6.90
2018-05-18T01:15:30.882Z,6.73
2018-05-18T01:18:00.178Z,7.77
2018-05-18T01:20:28.597Z,7.07
2018-05-18T01:22:56.982Z,6.90
2018-05-18T01:25:25.439Z,8.20
2018-05-18T01:27:54.474Z,7.27
2018-05-18T01:30:25.415Z,9.47
2018-05-18T01:32:54.556Z,8.83
2018-05-18T01:35:22.994Z,8.90
2018-05-18T01:37:51.130Z,7.60
2018-05-18T01:40:19.358Z,6.13
2018-05-18T01:42:47.939Z,5.10
2018-05-18T01:45:16.986Z,5.83
2018-05-18T01:47:45.163Z,5.10
2018-05-18T01:50:14.070Z,5.97
2018-05-18T01:52:42.733Z,6.50
2018-05-18T01:55:10.917Z,6.67
2018-05-18T01:57:39.511Z,5.27
2018-05-18T02:00:08.083Z,6.27
2018-05-18T02:02:37.188Z,7.20
2018-05-18T02:05:05.611Z,6.87
2018-05-18T02:07:34.202Z,6.90
2018-05-18T02:10:02.758Z,7.43
2018-05-18T02:12:30.944Z,7.70
2018-05-18T02:14:59.816Z,6.90
2018-05-18T02:17:28.006Z,9.13
2018-05-18T02:19:56.231Z,9.00
2018-05-18T02:22:27.276Z,9.40
2018-05-18T02:24:55.417Z,6.73
2018-05-18T02:27:24.116Z,8.13
2018-05-18T02:29:52.274Z,6.20
2018-05-18T02:32:20.450Z,5.60
2018-05-18T02:34:49.877Z,5.40
2018-05-18T02:37:19.880Z,5.93
2018-05-18T02:39:49.867Z,5.23
2018-05-18T02:42:18.076Z,4.87
2018-05-18T02:44:46.720Z,5.20
2018-05-18T02:47:15.755Z,4.63
2018-05-18T02:49:43.938Z,5.13
2018-05-18T02:52:12.810Z,4.03
2018-05-18T02:54:41.646Z,6.47
2018-05-18T02:57:10.185Z,6.83
2018-05-18T02:59:38.606Z,6.63
2018-05-18T03:02:07.131Z,7.00
2018-05-18T03:04:35.761Z,8.27
2018-05-18T03:07:03.914Z,7.87
2018-05-18T03:09:33.012Z,9.13
2018-05-18T03:12:01.720Z,6.30
2018-05-18T03:14:30.177Z,6.53
2018-05-18T03:16:58.598Z,8.33
2018-05-18T03:19:27.229Z,7.13
2018-05-18T03:21:56.270Z,6.70
2018-05-18T03:24:25.742Z,5.20
2018-05-18T03:26:54.754Z,6.50
2018-05-18T03:29:23.199Z,5.57
2018-05-18T03:31:52.364Z,5.47
2018-05-18T03:34:20.785Z,5.83
2018-05-18T03:36:49.415Z,4.90
2018-05-18T03:39:17.836Z,5.07
2018-05-18T03:41:46.871Z,4.23
2018-05-18T03:44:16.871Z,4.83
2018-05-18T03:46:45.698Z,4.83
2018-05-18T03:49:14.863Z,4.17
2018-05-18T03:51:43.370Z,5.33
2018-05-18T03:54:12.019Z,6.70
2018-05-18T03:56:41.171Z,7.07
2018-05-18T03:59:10.143Z,6.00
2018-05-18T04:01:52.726Z,6.60
2018-05-18T04:04:33.682Z,5.80
2018-05-18T04:07:14.302Z,5.33
2018-05-18T04:09:42.731Z,5.23
2018-05-18T04:12:11.180Z,4.77
2018-05-18T04:14:39.774Z,7.17
2018-05-18T04:17:08.199Z,5.80
2018-05-18T04:19:37.070Z,6.63
2018-05-18T04:22:05.250Z,7.37
2018-05-18T04:24:33.770Z,6.73
2018-05-18T04:27:02.946Z,5.77
2018-05-18T04:29:31.906Z,5.53
2018-05-18T04:32:01.269Z,5.87
2018-05-18T04:34:29.896Z,5.43
2018-05-18T04:36:58.041Z,5.70
2018-05-18T04:39:27.400Z,6.80
2018-05-18T04:41:55.995Z,5.40
2018-05-18T04:44:24.146Z,5.70
2018-05-18T04:46:53.347Z,4.70
2018-05-18T04:49:21.954Z,5.80
2018-05-18T04:51:50.287Z,4.63
2018-05-18T04:54:18.819Z,6.17
2018-05-18T04:56:48.912Z,5.27
2018-05-18T04:59:17.751Z,6.00
2018-05-18T05:01:46.904Z,4.83
2018-05-18T05:04:15.546Z,5.37
2018-05-18T05:06:44.177Z,6.47
2018-05-18T05:09:13.537Z,5.07
2018-05-18T05:11:42.168Z,5.67
2018-05-18T05:14:11.202Z,6.27
2018-05-18T05:16:39.811Z,5.60
2018-05-18T05:19:08.987Z,4.77
2018-05-18T05:21:38.045Z,5.07
2018-05-18T05:24:06.430Z,5.53
2018-05-18T05:26:35.829Z,4.23
2018-05-18T05:29:04.095Z,4.60
2018-05-18T05:31:32.678Z,4.50
2018-05-18T05:34:00.822Z,4.70
2018-05-18T05:36:29.001Z,4.60
2018-05-18T05:38:57.918Z,4.60
2018-05-18T05:41:26.098Z,5.53
2018-05-18T05:43:55.810Z,5.33
2018-05-18T05:46:25.705Z,5.07
2018-05-18T05:48:54.543Z,5.37
2018-05-18T05:51:23.800Z,5.30
2018-05-18T05:53:52.431Z,6.00
2018-05-18T05:56:21.061Z,4.67
2018-05-18T05:58:50.203Z,4.83
2018-05-18T06:01:19.234Z,4.03
2018-05-18T06:03:47.646Z,4.63
2018-05-18T06:06:15.827Z,4.33
2018-05-18T06:08:44.098Z,4.53
2018-05-18T06:11:12.529Z,4.87
2018-05-18T06:13:40.949Z,5.00
2018-05-18T06:16:10.937Z,6.40
2018-05-18T06:18:39.128Z,4.83
2018-05-18T06:21:08.290Z,5.30
2018-05-18T06:23:38.011Z,5.77
2018-05-18T06:26:06.606Z,6.07
2018-05-18T06:28:35.027Z,6.67
2018-05-18T06:31:03.553Z,6.57
2018-05-18T06:33:31.975Z,5.80
2018-05-18T06:36:00.397Z,4.80
2018-05-18T06:38:28.817Z,6.17
2018-05-18T06:40:56.974Z,7.67
2018-05-18T06:43:25.633Z,9.40
2018-05-18T06:45:53.779Z,8.00
2018-05-18T06:48:23.127Z,7.90
2018-05-18T06:50:52.175Z,8.60
2018-05-18T06:53:21.108Z,9.37
2018-05-18T06:55:49.946Z,8.93
2018-05-18T06:58:18.871Z,7.40
2018-05-18T07:00:47.729Z,8.63
2018-05-18T07:03:16.892Z,9.20
2018-05-18T07:05:46.038Z,8.17
2018-05-18T07:08:15.197Z,9.07
2018-05-18T07:10:44.023Z,9.40
2018-05-18T07:13:12.206Z,7.83
2018-05-18T07:15:40.878Z,6.83
2018-05-18T07:18:09.022Z,7.07
2018-05-18T07:20:38.230Z,9.07
2018-05-18T07:23:07.401Z,11.23
2018-05-18T07:25:35.920Z,12.70
2018-05-18T07:28:04.445Z,10.60
2018-05-18T07:30:33.042Z,12.53
2018-05-18T07:33:01.235Z,11.83
2018-05-18T07:35:29.918Z,8.73
2018-05-18T07:37:58.071Z,7.90
2018-05-18T07:40:26.656Z,7.67
2018-05-18T07:42:55.591Z,10.07
2018-05-18T07:45:24.022Z,7.53
2018-05-18T07:47:54.009Z,7.37
2018-05-18T07:50:22.848Z,7.30
2018-05-18T07:52:51.989Z,6.17
2018-05-18T07:55:20.632Z,6.27
2018-05-18T07:57:49.014Z,5.70
2018-05-18T08:00:18.086Z,7.50
2018-05-18T08:02:46.940Z,7.47
2018-05-18T08:05:16.079Z,8.67
2018-05-18T08:07:44.923Z,8.20
2018-05-18T08:10:13.314Z,7.93
2018-05-18T08:12:41.774Z,10.50
2018-05-18T08:15:10.211Z,10.40
2018-05-18T08:17:38.567Z,13.87
2018-05-18T08:20:08.814Z,13.07
2018-05-18T08:22:36.990Z,9.83
2018-05-18T08:25:05.415Z,10.53
2018-05-18T08:27:34.003Z,8.03
2018-05-18T08:30:02.115Z,7.03
2018-05-18T08:32:30.595Z,5.20
2018-05-18T08:34:58.774Z,5.70
2018-05-18T08:37:26.983Z,10.47
2018-05-18T08:39:55.556Z,13.37
2018-05-18T08:42:23.967Z,13.63
2018-05-18T08:44:52.712Z,16.07
2018-05-18T08:47:20.991Z,8.97
2018-05-18T08:49:49.179Z,6.93
2018-05-18T08:52:17.767Z,6.70
2018-05-18T08:54:45.919Z,6.37
2018-05-18T08:57:14.910Z,6.80
2018-05-18T08:59:43.518Z,8.50
2018-05-18T09:02:12.392Z,8.10
2018-05-18T09:04:40.918Z,8.77
2018-05-18T09:07:09.746Z,5.43
2018-05-18T09:09:38.247Z,7.47
2018-05-18T09:12:06.704Z,6.40
2018-05-18T09:14:35.635Z,7.33
2018-05-18T09:17:03.817Z,6.93
2018-05-18T09:19:32.910Z,6.13
2018-05-18T09:22:01.130Z,7.67
2018-05-18T09:24:30.367Z,7.53
2018-05-18T09:26:58.902Z,7.17
2018-05-18T09:29:27.050Z,6.07
2018-05-18T09:31:55.537Z,6.30
2018-05-18T09:34:25.408Z,6.40
2018-05-18T09:36:53.840Z,6.10
2018-05-18T09:39:22.053Z,6.50
2018-05-18T09:41:50.878Z,6.00
2018-05-18T09:44:19.106Z,5.77
2018-05-18T09:46:47.249Z,5.77
2018-05-18T09:49:16.455Z,5.87
2018-05-18T09:51:45.099Z,6.00
2018-05-18T09:54:13.640Z,5.77
2018-05-18T09:56:41.790Z,6.37
2018-05-18T09:59:10.870Z,8.40
2018-05-18T10:01:39.847Z,9.03
2018-05-18T10:04:09.817Z,7.27
2018-05-18T10:06:38.654Z,6.83
2018-05-18T10:09:07.902Z,5.33
2018-05-18T10:11:36.958Z,7.33
2018-05-18T10:14:05.138Z,7.87
2018-05-18T10:16:34.324Z,7.13
2018-05-18T10:19:04.312Z,5.83
2018-05-18T10:21:33.047Z,6.30
2018-05-18T10:24:01.190Z,5.83
2018-05-18T10:26:30.922Z,5.77
2018-05-18T10:28:59.354Z,5.57
2018-05-18T10:31:27.879Z,5.90
2018-05-18T10:33:56.915Z,5.30
2018-05-18T10:36:27.021Z,6.20
2018-05-18T10:38:55.847Z,6.70
2018-05-18T10:41:25.103Z,5.90
2018-05-18T10:43:54.478Z,6.60
2018-05-18T10:46:23.008Z,5.20
2018-05-18T10:48:51.634Z,5.10
2018-05-18T10:51:20.892Z,6.30
2018-05-18T10:53:50.878Z,5.83
2018-05-18T10:56:19.055Z,6.00
2018-05-18T10:58:47.243Z,6.27
2018-05-18T11:01:16.344Z,5.67
2018-05-18T11:03:44.980Z,5.87
2018-05-18T11:06:13.575Z,6.57
2018-05-18T11:08:42.345Z,6.50
2018-05-18T11:11:10.767Z,5.73
2018-05-18T11:13:39.397Z,4.97
2018-05-18T11:16:07.922Z,6.03
2018-05-18T11:18:36.074Z,6.10
2018-05-18T11:21:05.078Z,5.33
2018-05-18T11:23:34.219Z,6.70
2018-05-18T11:26:04.103Z,5.37
2018-05-18T11:28:33.255Z,6.30
2018-05-18T11:31:01.688Z,6.27
2018-05-18T11:33:30.722Z,6.83
2018-05-18T11:35:59.874Z,6.90
2018-05-18T11:38:28.867Z,5.73
2018-05-18T11:40:57.806Z,5.23
2018-05-18T11:43:26.255Z,5.70
2018-05-18T11:45:54.826Z,6.10
2018-05-18T11:48:24.503Z,6.93
2018-05-18T11:50:53.658Z,7.67
2018-05-18T11:53:22.065Z,7.50
2018-05-18T11:55:50.242Z,6.37
2018-05-18T11:58:18.976Z,6.53
2018-05-18T12:00:48.069Z,5.87
2018-05-18T12:03:16.595Z,5.37
2018-05-18T12:05:45.787Z,5.97
2018-05-18T12:08:14.359Z,6.37
2018-05-18T12:10:43.843Z,5.97
2018-05-18T12:13:12.671Z,6.00
2018-05-18T12:15:40.850Z,5.97
2018-05-18T12:18:10.771Z,5.73
2018-05-18T12:20:39.751Z,5.90
2018-05-18T12:23:09.085Z,6.00
2018-05-18T12:25:37.235Z,5.50
2018-05-18T12:28:05.821Z,6.00
2018-05-18T12:30:34.973Z,5.43
2018-05-18T12:33:03.142Z,5.50
2018-05-18T12:35:31.343Z,5.40
2018-05-18T12:38:00.523Z,5.17
2018-05-18T12:40:29.076Z,5.50
2018-05-18T12:42:57.226Z,6.23
2018-05-18T12:45:25.814Z,5.57
2018-05-18T12:47:54.862Z,5.50
2018-05-18T12:50:24.943Z,5.30
2018-05-18T12:52:53.126Z,5.60
2018-05-18T12:55:21.310Z,4.90
2018-05-18T12:57:49.800Z,5.90
2018-05-18T13:00:18.186Z,4.67
2018-05-18T13:02:47.047Z,5.37
2018-05-18T13:05:15.690Z,5.73
2018-05-18T13:07:44.320Z,5.33
2018-05-18T13:10:13.358Z,6.57
2018-05-18T13:12:43.350Z,5.33
2018-05-18T13:15:12.682Z,5.90
2018-05-18T13:17:40.866Z,6.57
2018-05-18T13:20:09.098Z,6.30
2018-05-18T13:22:37.981Z,5.73
2018-05-18T13:25:07.185Z,5.70
2018-05-18T13:27:36.562Z,6.40
2018-05-18T13:30:05.021Z,5.40
2018-05-18T13:32:33.378Z,5.83
2018-05-18T13:35:01.980Z,6.20
2018-05-18T13:37:30.116Z,6.27
2018-05-18T13:39:59.010Z,7.50
2018-05-18T13:42:28.159Z,6.23
2018-05-18T13:44:56.383Z,6.43
2018-05-18T13:47:24.980Z,7.00
2018-05-18T13:49:53.163Z,6.40
2018-05-18T13:52:21.856Z,6.00
2018-05-18T13:54:50.995Z,6.27
2018-05-18T13:57:19.641Z,7.27
2018-05-18T13:59:48.064Z,6.00
2018-05-18T14:02:16.210Z,6.40
2018-05-18T14:04:44.901Z,6.63
2018-05-18T14:07:13.831Z,6.20
2018-05-18T14:09:42.580Z,5.40
2018-05-18T14:12:10.753Z,6.43
2018-05-18T14:14:38.926Z,6.40
2018-05-18T14:17:09.398Z,6.80
2018-05-18T14:19:37.902Z,6.23
2018-05-18T14:22:06.569Z,7.20
2018-05-18T14:24:34.722Z,5.50
2018-05-18T14:27:04.311Z,6.30
2018-05-18T14:29:33.464Z,7.17
2018-05-18T14:32:01.922Z,6.33
2018-05-18T14:34:30.449Z,6.10
2018-05-18T14:36:58.869Z,6.80
2018-05-18T14:39:27.289Z,6.43
2018-05-18T14:41:55.679Z,6.23
2018-05-18T14:44:23.863Z,6.00
2018-05-18T14:46:52.594Z,6.80
2018-05-18T14:49:20.804Z,6.03
2018-05-18T14:51:49.396Z,5.53
2018-05-18T14:54:17.817Z,6.40
2018-05-18T14:56:45.971Z,5.50
2018-05-18T14:59:14.252Z,5.60
2018-05-18T15:01:42.663Z,5.30
2018-05-18T15:04:11.815Z,5.40
2018-05-18T15:06:40.419Z,5.90
2018-05-18T15:09:08.975Z,5.83
2018-05-18T15:11:38.124Z,5.07
2018-05-18T15:14:06.951Z,5.40
2018-05-18T15:16:35.158Z,5.50
2018-05-18T15:19:03.805Z,5.63
2018-05-18T15:21:32.950Z,5.87
2018-05-18T15:24:01.900Z,5.23
2018-05-18T15:26:30.321Z,5.57
2018-05-18T15:28:59.774Z,5.67
2018-05-18T15:31:31.226Z,6.00
2018-05-18T15:34:00.599Z,5.77
2018-05-18T15:36:29.125Z,5.83
2018-05-18T15:38:57.271Z,5.67
2018-05-18T15:41:26.478Z,5.80
2018-05-18T15:43:55.082Z,5.13
2018-05-18T15:46:23.267Z,5.27
2018-05-18T15:48:51.857Z,6.03
2018-05-18T15:51:20.383Z,6.07
2018-05-18T15:53:48.909Z,5.77
2018-05-18T15:56:17.054Z,5.33
2018-05-18T15:58:46.814Z,5.27
2018-05-18T16:01:16.934Z,7.20
2018-05-18T16:03:45.503Z,5.50
2018-05-18T16:06:14.159Z,5.80
2018-05-18T16:08:43.265Z,5.27
2018-05-18T16:11:12.244Z,5.60
2018-05-18T16:13:40.770Z,5.63
2018-05-18T16:16:09.191Z,6.37
2018-05-18T16:18:37.613Z,5.77
2018-05-18T16:21:07.129Z,5.37
2018-05-18T16:23:35.228Z,6.13
2018-05-18T16:26:04.118Z,5.30
2018-05-18T16:28:32.306Z,5.30
2018-05-18T16:31:01.497Z,5.97
2018-05-18T16:33:30.205Z,5.53
2018-05-18T16:35:58.290Z,5.50
2018-05-18T16:38:26.759Z,5.27
2018-05-18T16:40:55.909Z,5.07
2018-05-18T16:43:25.898Z,4.73
2018-05-18T16:45:55.039Z,4.77
2018-05-18T16:48:23.222Z,4.73
2018-05-18T16:50:51.788Z,5.30
2018-05-18T16:53:20.210Z,5.13
2018-05-18T16:55:48.791Z,5.87
2018-05-18T16:58:19.338Z,4.90
2018-05-18T17:00:47.876Z,5.40
2018-05-18T17:03:16.030Z,5.20
2018-05-18T17:05:45.240Z,4.77
2018-05-18T17:08:13.763Z,5.30
2018-05-18T17:10:42.401Z,5.10
2018-05-18T17:13:10.817Z,4.97
2018-05-18T17:15:38.970Z,5.37
2018-05-18T17:18:08.066Z,5.77
2018-05-18T17:20:36.707Z,5.33
2018-05-18T17:23:05.847Z,4.87
2018-05-18T17:25:34.267Z,5.47
2018-05-18T17:28:02.771Z,5.77
2018-05-18T17:30:31.958Z,5.70
2018-05-18T17:33:01.209Z,5.60
2018-05-18T17:35:29.811Z,6.63
2018-05-18T17:37:57.991Z,5.47
2018-05-18T17:40:26.183Z,5.20
2018-05-18T17:42:54.796Z,4.90
2018-05-18T17:45:23.653Z,5.50
2018-05-18T17:47:52.123Z,5.07
2018-05-18T17:50:21.301Z,5.77
2018-05-18T17:52:49.942Z,4.70
2018-05-18T17:55:18.079Z,5.43
2018-05-18T17:57:47.030Z,5.30
2018-05-18T18:00:15.519Z,5.47
2018-05-18T18:02:44.046Z,4.93
2018-05-18T18:05:12.190Z,4.90
2018-05-18T18:07:41.086Z,5.10
2018-05-18T18:10:10.550Z,4.43
2018-05-18T18:12:39.990Z,5.07
2018-05-18T18:15:08.438Z,4.77
2018-05-18T18:17:36.940Z,4.80
2018-05-18T18:20:05.339Z,4.70
2018-05-18T18:22:33.937Z,4.33
2018-05-18T18:25:02.755Z,5.30
2018-05-18T18:27:31.914Z,5.50
2018-05-18T18:30:00.083Z,4.60
2018-05-18T18:32:29.267Z,4.77
2018-05-18T18:34:57.700Z,4.83
2018-05-18T18:37:25.851Z,4.67
2018-05-18T18:39:54.714Z,5.70
2018-05-18T18:42:23.241Z,5.27
2018-05-18T18:44:51.668Z,5.20
2018-05-18T18:47:19.898Z,4.47
2018-05-18T18:49:48.502Z,4.87
2018-05-18T18:52:17.066Z,4.77
2018-05-18T18:54:45.683Z,4.80
2018-05-18T18:57:14.116Z,4.80
2018-05-18T18:59:42.643Z,5.07
2018-05-18T19:02:11.574Z,4.43
2018-05-18T19:04:39.758Z,5.30
2018-05-18T19:07:07.966Z,4.37
2018-05-18T19:09:36.522Z,4.60
2018-05-18T19:12:04.711Z,4.80
2018-05-18T19:14:33.238Z,4.67
2018-05-18T19:17:01.904Z,4.87
2018-05-18T19:19:30.058Z,4.30
2018-05-18T19:21:59.269Z,4.53
2018-05-18T19:24:27.798Z,4.97
2018-05-18T19:26:56.318Z,4.37
2018-05-18T19:29:24.846Z,4.33
2018-05-18T19:31:52.999Z,4.13
2018-05-18T19:34:21.258Z,4.90
2018-05-18T19:36:50.423Z,4.60
2018-05-18T19:39:18.948Z,4.23
2018-05-18T19:41:48.206Z,5.17
2018-05-18T19:44:16.799Z,5.00
2018-05-18T19:46:45.988Z,5.07
2018-05-18T19:49:14.162Z,4.70
2018-05-18T19:51:42.830Z,4.40
2018-05-18T19:54:11.252Z,5.17
2018-05-18T19:56:40.963Z,5.00
2018-05-18T19:59:10.915Z,4.70
2018-05-18T20:01:39.544Z,4.47
2018-05-18T20:04:08.586Z,4.40
2018-05-18T20:06:37.651Z,4.10
2018-05-18T20:09:06.792Z,4.20
2018-05-18T20:11:34.968Z,3.80
2018-05-18T20:14:04.647Z,3.90
2018-05-18T20:16:33.205Z,4.20
2018-05-18T20:19:01.627Z,3.97
2018-05-18T20:21:30.153Z,3.97
2018-05-18T20:23:58.748Z,4.27
2018-05-18T20:26:27.715Z,3.83
2018-05-18T20:28:56.148Z,4.53
2018-05-18T20:31:24.568Z,4.37
2018-05-18T20:33:52.846Z,4.40
2018-05-18T20:36:21.035Z,4.67
2018-05-18T20:38:49.727Z,4.53
2018-05-18T20:41:18.319Z,4.57
2018-05-18T20:43:46.886Z,4.10
2018-05-18T20:46:15.041Z,4.47
2018-05-18T20:48:44.130Z,4.00
2018-05-18T20:51:13.094Z,4.40
2018-05-18T20:53:41.717Z,4.23
2018-05-18T20:56:09.891Z,4.50
2018-05-18T20:58:38.783Z,4.60
2018-05-18T21:01:07.607Z,4.80
2018-05-18T21:03:36.483Z,4.53
2018-05-18T21:06:04.622Z,4.03
2018-05-18T21:08:33.810Z,5.47
2018-05-18T21:11:02.860Z,4.00
2018-05-18T21:13:31.003Z,4.10
2018-05-18T21:16:00.002Z,4.27
2018-05-18T21:18:28.446Z,4.40
2018-05-18T21:20:56.962Z,3.97
2018-05-18T21:23:25.376Z,4.60
2018-05-18T21:25:53.911Z,4.37
2018-05-18T21:28:22.086Z,4.60
2018-05-18T21:30:50.817Z,4.80
2018-05-18T21:33:19.342Z,4.50
2018-05-18T21:35:48.011Z,4.30
2018-05-18T21:38:16.162Z,4.60
2018-05-18T21:40:45.375Z,4.37
2018-05-18T21:43:14.550Z,5.37
2018-05-18T21:45:45.248Z,4.63
2018-05-18T21:48:13.877Z,4.97
2018-05-18T21:50:42.717Z,4.53
2018-05-18T21:53:12.705Z,4.53
2018-05-18T21:55:41.739Z,4.17
2018-05-18T21:58:10.801Z,4.63
2018-05-18T22:00:39.535Z,4.20
2018-05-18T22:03:07.683Z,4.73
2018-05-18T22:05:36.377Z,5.20
2018-05-18T22:08:04.902Z,4.30
2018-05-18T22:10:33.495Z,5.00
2018-05-18T22:13:02.671Z,4.93
2018-05-18T22:15:31.654Z,5.00
2018-05-18T22:18:01.499Z,4.90
2018-05-18T22:20:30.455Z,5.83
2018-05-18T22:22:58.634Z,5.13
2018-05-18T22:25:27.089Z,5.10
2018-05-18T22:27:55.890Z,4.90
2018-05-18T22:30:24.982Z,5.37
2018-05-18T22:32:53.518Z,5.30
2018-05-18T22:35:22.862Z,4.77
2018-05-18T22:37:51.479Z,5.87
2018-05-18T22:40:19.915Z,5.57
2018-05-18T22:42:48.755Z,5.30
2018-05-18T22:45:16.924Z,6.33
2018-05-18T22:47:45.595Z,5.67
2018-05-18T22:50:14.191Z,5.20
2018-05-18T22:52:43.135Z,5.30
2018-05-18T22:55:13.052Z,5.57
2018-05-18T22:57:42.834Z,5.40
2018-05-18T23:00:11.970Z,6.10
2018-05-18T23:02:40.371Z,5.70
2018-05-18T23:05:08.550Z,5.37
2018-05-18T23:07:37.039Z,5.60
2018-05-18T23:10:06.191Z,5.03
2018-05-18T23:12:34.617Z,6.20
2018-05-18T23:15:02.814Z,5.53
2018-05-18T23:17:31.206Z,6.57
2018-05-18T23:20:00.403Z,5.90
2018-05-18T23:22:28.819Z,6.43
2018-05-18T23:24:56.967Z,5.80
2018-05-18T23:27:25.964Z,5.50
2018-05-18T23:29:54.396Z,5.73
2018-05-18T23:32:22.921Z,5.63
2018-05-18T23:34:51.969Z,6.20
2018-05-18T23:37:20.391Z,5.20
2018-05-18T23:39:48.917Z,5.80
2018-05-18T23:42:17.327Z,5.67
2018-05-18T23:44:47.639Z,5.93
2018-05-18T23:47:16.270Z,5.93
2018-05-18T23:49:45.931Z,6.30
2018-05-18T23:52:14.330Z,5.70
2018-05-18T23:54:42.935Z,6.53
2018-05-18T23:57:12.343Z,6.10
2018-05-18T23:59:40.739Z,5.73
